sensor_id;sensor_type;location;lat;lon;timestamp;P1;durP1;ratioP1;P2;durP2;ratioP2
21416;SDS011;10869;52.238;10.716;2023-06-14T03:03:47;9.80;;;2.20;;
21416;SDS011;10869;52.238;10.716;2023-06-14T03:06:13;6.37;;;2.63;;
21416;SDS011;10869;52.238;10.716;2023-06-14T03:08:44;6.83;;;2.43;;
21416;SDS011;10869;52.238;10.716;2023-06-14T03:11:11;5.60;;;2.30;;
21416;SDS011;10869;52.238;10.716;2023-06-14T03:13:36;6.67;;;2.90;;
21416;SDS011;10869;52.238;10.716;2023-06-14T03:16:03;4.70;;;2.30;;
21416;SDS011;10869;52.238;10.716;2023-06-14T03:18:30;5.53;;;2.63;;
21416;SDS011;10869;52.238;10.716;2023-06-14T03:21:01;6.53;;;2.43;;
21416;SDS011;10869;52.238;10.716;2023-06-14T03:23:27;9.20;;;3.07;;
21416;SDS011;10869;52.238;10.716;2023-06-14T03:25:53;4.40;;;2.10;;
21416;SDS011;10869;52.238;10.716;2023-06-14T03:28:19;12.00;;;3.00;;
21416;SDS011;10869;52.238;10.716;2023-06-14T03:30:45;9.93;;;2.57;;
21416;SDS011;10869;52.238;10.716;2023-06-14T03:33:10;5.47;;;2.43;;
21416;SDS011;10869;52.238;10.716;2023-06-14T03:35:36;5.90;;;2.50;;
21416;SDS011;10869;52.238;10.716;2023-06-14T03:38:02;7.30;;;2.17;;
21416;SDS011;10869;52.238;10.716;2023-06-14T03:40:28;5.20;;;2.23;;
21416;SDS011;10869;52.238;10.716;2023-06-14T03:42:54;5.57;;;2.20;;
21416;SDS011;10869;52.238;10.716;2023-06-14T03:45:20;3.97;;;2.10;;
21416;SDS011;10869;52.238;10.716;2023-06-14T03:47:46;8.33;;;2.80;;
21416;SDS011;10869;52.238;10.716;2023-06-14T03:50:13;4.90;;;2.20;;
21416;SDS011;10869;52.238;10.716;2023-06-14T03:52:38;6.47;;;2.17;;
21416;SDS011;10869;52.238;10.716;2023-06-14T03:55:07;6.03;;;2.30;;
21416;SDS011;10869;52.238;10.716;2023-06-14T03:57:33;7.57;;;2.80;;
21416;SDS011;10869;52.238;10.716;2023-06-14T03:59:58;9.13;;;2.63;;
21416;SDS011;10869;52.238;10.716;2023-06-14T04:02:24;6.97;;;2.27;;
21416;SDS011;10869;52.238;10.716;2023-06-14T04:04:50;6.60;;;2.60;;
21416;SDS011;10869;52.238;10.716;2023-06-14T04:07:16;6.33;;;2.57;;
21416;SDS011;10869;52.238;10.716;2023-06-14T04:09:45;9.17;;;2.60;;
21416;SDS011;10869;52.238;10.716;2023-06-14T04:12:11;5.57;;;2.53;;
21416;SDS011;10869;52.238;10.716;2023-06-14T04:14:37;6.10;;;2.57;;
21416;SDS011;10869;52.238;10.716;2023-06-14T04:17:04;7.73;;;3.03;;
21416;SDS011;10869;52.238;10.716;2023-06-14T04:19:30;8.00;;;2.70;;
21416;SDS011;10869;52.238;10.716;2023-06-14T04:21:56;4.80;;;2.30;;
21416;SDS011;10869;52.238;10.716;2023-06-14T04:24:22;10.97;;;2.40;;
21416;SDS011;10869;52.238;10.716;2023-06-14T04:26:48;7.23;;;3.13;;
21416;SDS011;10869;52.238;10.716;2023-06-14T04:29:16;7.20;;;3.00;;
21416;SDS011;10869;52.238;10.716;2023-06-14T04:31:45;5.97;;;2.57;;
21416;SDS011;10869;52.238;10.716;2023-06-14T04:34:38;6.53;;;2.63;;
21416;SDS011;10869;52.238;10.716;2023-06-14T04:37:05;7.27;;;2.90;;
21416;SDS011;10869;52.238;10.716;2023-06-14T04:39:36;10.13;;;2.87;;
21416;SDS011;10869;52.238;10.716;2023-06-14T04:42:02;5.23;;;2.33;;
21416;SDS011;10869;52.238;10.716;2023-06-14T04:44:32;4.77;;;2.33;;
21416;SDS011;10869;52.238;10.716;2023-06-14T04:47:10;4.93;;;2.23;;
21416;SDS011;10869;52.238;10.716;2023-06-14T04:53:42;4.70;;;2.30;;
21416;SDS011;10869;52.238;10.716;2023-06-14T05:06:43;6.27;;;2.40;;
21416;SDS011;10869;52.238;10.716;2023-06-14T05:09:13;4.50;;;2.60;;
21416;SDS011;10869;52.238;10.716;2023-06-14T05:11:40;10.03;;;3.07;;
21416;SDS011;10869;52.238;10.716;2023-06-14T05:14:09;9.47;;;3.27;;
21416;SDS011;10869;52.238;10.716;2023-06-14T05:16:35;6.20;;;2.93;;
21416;SDS011;10869;52.238;10.716;2023-06-14T05:19:02;5.47;;;2.77;;
21416;SDS011;10869;52.238;10.716;2023-06-14T05:21:29;8.37;;;2.73;;
21416;SDS011;10869;52.238;10.716;2023-06-14T05:23:56;4.57;;;2.40;;
21416;SDS011;10869;52.238;10.716;2023-06-14T05:26:21;4.40;;;2.43;;
21416;SDS011;10869;52.238;10.716;2023-06-14T05:28:54;8.57;;;3.10;;
21416;SDS011;10869;52.238;10.716;2023-06-14T05:31:21;5.90;;;3.10;;
21416;SDS011;10869;52.238;10.716;2023-06-14T05:33:49;9.10;;;2.70;;
21416;SDS011;10869;52.238;10.716;2023-06-14T05:36:18;6.40;;;2.60;;
21416;SDS011;10869;52.238;10.716;2023-06-14T05:38:48;6.90;;;2.13;;
21416;SDS011;10869;52.238;10.716;2023-06-14T05:41:14;4.20;;;2.23;;
21416;SDS011;10869;52.238;10.716;2023-06-14T05:43:39;5.40;;;2.77;;
21416;SDS011;10869;52.238;10.716;2023-06-14T05:49:27;3.75;;;2.03;;
21416;SDS011;10869;52.238;10.716;2023-06-14T05:55:16;3.65;;;2.00;;
21416;SDS011;10869;52.238;10.716;2023-06-14T05:57:42;6.73;;;2.93;;
21416;SDS011;10869;52.238;10.716;2023-06-14T06:00:07;4.70;;;2.57;;
21416;SDS011;10869;52.238;10.716;2023-06-14T06:02:40;6.23;;;2.40;;
21416;SDS011;10869;52.238;10.716;2023-06-14T06:05:12;7.83;;;2.53;;
21416;SDS011;10869;52.238;10.716;2023-06-14T06:07:38;10.17;;;2.57;;
21416;SDS011;10869;52.238;10.716;2023-06-14T06:10:09;5.23;;;2.50;;
21416;SDS011;10869;52.238;10.716;2023-06-14T06:12:35;5.60;;;2.43;;
21416;SDS011;10869;52.238;10.716;2023-06-14T06:15:01;6.60;;;2.57;;
21416;SDS011;10869;52.238;10.716;2023-06-14T06:17:26;8.37;;;2.73;;
21416;SDS011;10869;52.238;10.716;2023-06-14T06:19:53;7.90;;;3.30;;
21416;SDS011;10869;52.238;10.716;2023-06-14T06:22:19;4.93;;;2.50;;
21416;SDS011;10869;52.238;10.716;2023-06-14T06:24:45;6.03;;;3.33;;
21416;SDS011;10869;52.238;10.716;2023-06-14T06:27:11;6.73;;;3.60;;
21416;SDS011;10869;52.238;10.716;2023-06-14T06:29:41;7.83;;;3.30;;
21416;SDS011;10869;52.238;10.716;2023-06-14T06:32:08;5.77;;;2.97;;
21416;SDS011;10869;52.238;10.716;2023-06-14T06:34:42;7.20;;;3.27;;
21416;SDS011;10869;52.238;10.716;2023-06-14T06:37:10;7.20;;;3.10;;
21416;SDS011;10869;52.238;10.716;2023-06-14T06:39:39;4.87;;;2.83;;
21416;SDS011;10869;52.238;10.716;2023-06-14T06:42:05;4.90;;;2.63;;
21416;SDS011;10869;52.238;10.716;2023-06-14T06:44:31;4.90;;;2.73;;
21416;SDS011;10869;52.238;10.716;2023-06-14T06:46:57;8.43;;;3.13;;
21416;SDS011;10869;52.238;10.716;2023-06-14T06:49:23;6.40;;;3.00;;
21416;SDS011;10869;52.238;10.716;2023-06-14T06:52:05;5.07;;;2.73;;
21416;SDS011;10869;52.238;10.716;2023-06-14T06:54:32;6.70;;;3.37;;
21416;SDS011;10869;52.238;10.716;2023-06-14T06:56:59;4.83;;;2.60;;
21416;SDS011;10869;52.238;10.716;2023-06-14T06:59:35;9.03;;;2.90;;
21416;SDS011;10869;52.238;10.716;2023-06-14T07:02:01;4.83;;;2.30;;
21416;SDS011;10869;52.238;10.716;2023-06-14T07:04:27;4.47;;;2.30;;
21416;SDS011;10869;52.238;10.716;2023-06-14T07:06:53;5.37;;;2.50;;
21416;SDS011;10869;52.238;10.716;2023-06-14T07:09:19;10.17;;;2.60;;
21416;SDS011;10869;52.238;10.716;2023-06-14T07:11:47;6.33;;;2.80;;
21416;SDS011;10869;52.238;10.716;2023-06-14T07:14:13;5.13;;;2.77;;
21416;SDS011;10869;52.238;10.716;2023-06-14T07:16:39;9.57;;;2.67;;
21416;SDS011;10869;52.238;10.716;2023-06-14T07:19:11;5.30;;;2.70;;
21416;SDS011;10869;52.238;10.716;2023-06-14T07:21:37;9.67;;;2.30;;
21416;SDS011;10869;52.238;10.716;2023-06-14T07:24:04;5.33;;;2.57;;
21416;SDS011;10869;52.238;10.716;2023-06-14T07:26:31;4.03;;;2.57;;
21416;SDS011;10869;52.238;10.716;2023-06-14T07:28:57;5.50;;;2.20;;
21416;SDS011;10869;52.238;10.716;2023-06-14T07:31:22;4.43;;;2.10;;
21416;SDS011;10869;52.238;10.716;2023-06-14T07:33:48;5.33;;;2.33;;
21416;SDS011;10869;52.238;10.716;2023-06-14T07:36:14;7.20;;;2.63;;
21416;SDS011;10869;52.238;10.716;2023-06-14T07:38:40;5.93;;;2.20;;
21416;SDS011;10869;52.238;10.716;2023-06-14T07:41:06;5.73;;;2.30;;
21416;SDS011;10869;52.238;10.716;2023-06-14T07:43:39;5.47;;;1.93;;
21416;SDS011;10869;52.238;10.716;2023-06-14T07:46:05;5.00;;;2.10;;
21416;SDS011;10869;52.238;10.716;2023-06-14T07:48:33;5.03;;;2.23;;
21416;SDS011;10869;52.238;10.716;2023-06-14T07:50:59;10.20;;;2.40;;
21416;SDS011;10869;52.238;10.716;2023-06-14T07:53:37;4.30;;;2.00;;
21416;SDS011;10869;52.238;10.716;2023-06-14T07:56:06;8.03;;;2.20;;
21416;SDS011;10869;52.238;10.716;2023-06-14T07:58:32;7.50;;;2.27;;
21416;SDS011;10869;52.238;10.716;2023-06-14T08:01:08;4.20;;;2.07;;
21416;SDS011;10869;52.238;10.716;2023-06-14T08:03:35;4.57;;;2.00;;
21416;SDS011;10869;52.238;10.716;2023-06-14T08:06:01;7.70;;;2.50;;
21416;SDS011;10869;52.238;10.716;2023-06-14T08:08:27;10.93;;;2.27;;
21416;SDS011;10869;52.238;10.716;2023-06-14T08:11:05;6.77;;;1.97;;
21416;SDS011;10869;52.238;10.716;2023-06-14T08:13:31;6.17;;;2.50;;
21416;SDS011;10869;52.238;10.716;2023-06-14T08:16:03;3.60;;;1.80;;
21416;SDS011;10869;52.238;10.716;2023-06-14T08:18:34;10.80;;;2.00;;
21416;SDS011;10869;52.238;10.716;2023-06-14T08:21:08;4.77;;;1.90;;
21416;SDS011;10869;52.238;10.716;2023-06-14T08:23:34;3.77;;;1.73;;
21416;SDS011;10869;52.238;10.716;2023-06-14T08:26:04;2.97;;;1.70;;
21416;SDS011;10869;52.238;10.716;2023-06-14T08:28:32;5.07;;;1.83;;
21416;SDS011;10869;52.238;10.716;2023-06-14T08:31:10;6.67;;;1.60;;
21416;SDS011;10869;52.238;10.716;2023-06-14T08:33:35;3.00;;;1.67;;
21416;SDS011;10869;52.238;10.716;2023-06-14T08:36:12;3.90;;;1.80;;
21416;SDS011;10869;52.238;10.716;2023-06-14T08:38:47;4.33;;;1.70;;
21416;SDS011;10869;52.238;10.716;2023-06-14T08:41:13;2.87;;;1.40;;
21416;SDS011;10869;52.238;10.716;2023-06-14T08:43:47;4.87;;;1.77;;
21416;SDS011;10869;52.238;10.716;2023-06-14T08:46:17;5.77;;;2.00;;
21416;SDS011;10869;52.238;10.716;2023-06-14T08:48:50;5.83;;;2.00;;
21416;SDS011;10869;52.238;10.716;2023-06-14T08:51:20;4.07;;;1.70;;
21416;SDS011;10869;52.238;10.716;2023-06-14T08:53:49;6.23;;;2.00;;
21416;SDS011;10869;52.238;10.716;2023-06-14T08:56:25;5.70;;;1.83;;
21416;SDS011;10869;52.238;10.716;2023-06-14T08:58:52;4.73;;;2.10;;
21416;SDS011;10869;52.238;10.716;2023-06-14T09:01:19;6.50;;;1.80;;
21416;SDS011;10869;52.238;10.716;2023-06-14T09:03:50;4.20;;;1.80;;
21416;SDS011;10869;52.238;10.716;2023-06-14T09:06:36;3.83;;;2.10;;
21416;SDS011;10869;52.238;10.716;2023-06-14T09:09:02;5.10;;;1.90;;
21416;SDS011;10869;52.238;10.716;2023-06-14T09:11:29;5.47;;;2.10;;
21416;SDS011;10869;52.238;10.716;2023-06-14T09:13:56;5.70;;;2.00;;
21416;SDS011;10869;52.238;10.716;2023-06-14T09:16:25;8.17;;;1.90;;
21416;SDS011;10869;52.238;10.716;2023-06-14T09:18:59;4.27;;;2.07;;
21416;SDS011;10869;52.238;10.716;2023-06-14T09:21:24;4.87;;;2.00;;
21416;SDS011;10869;52.238;10.716;2023-06-14T09:24:01;5.27;;;2.10;;
21416;SDS011;10869;52.238;10.716;2023-06-14T09:26:27;5.60;;;2.00;;
21416;SDS011;10869;52.238;10.716;2023-06-14T09:28:59;4.37;;;2.10;;
21416;SDS011;10869;52.238;10.716;2023-06-14T09:31:30;4.13;;;1.97;;
21416;SDS011;10869;52.238;10.716;2023-06-14T09:33:57;7.03;;;2.30;;
21416;SDS011;10869;52.238;10.716;2023-06-14T09:36:26;5.97;;;2.43;;
21416;SDS011;10869;52.238;10.716;2023-06-14T09:41:19;5.30;;;2.40;;
21416;SDS011;10869;52.238;10.716;2023-06-14T09:43:46;5.13;;;2.17;;
21416;SDS011;10869;52.238;10.716;2023-06-14T09:46:12;9.00;;;2.30;;
21416;SDS011;10869;52.238;10.716;2023-06-14T09:48:38;4.90;;;1.83;;
21416;SDS011;10869;52.238;10.716;2023-06-14T09:51:08;5.07;;;2.00;;
21416;SDS011;10869;52.238;10.716;2023-06-14T09:53:39;4.47;;;2.50;;
21416;SDS011;10869;52.238;10.716;2023-06-14T09:56:06;9.43;;;2.53;;
21416;SDS011;10869;52.238;10.716;2023-06-14T09:58:35;4.90;;;2.00;;
21416;SDS011;10869;52.238;10.716;2023-06-14T10:01:05;5.03;;;2.10;;
21416;SDS011;10869;52.238;10.716;2023-06-14T10:03:43;5.37;;;2.30;;
21416;SDS011;10869;52.238;10.716;2023-06-14T10:06:10;7.60;;;2.43;;
21416;SDS011;10869;52.238;10.716;2023-06-14T10:08:36;6.23;;;2.27;;
21416;SDS011;10869;52.238;10.716;2023-06-14T10:11:04;6.27;;;2.50;;
21416;SDS011;10869;52.238;10.716;2023-06-14T10:13:35;6.63;;;2.20;;
21416;SDS011;10869;52.238;10.716;2023-06-14T10:23:42;5.10;;;2.60;;
21416;SDS011;10869;52.238;10.716;2023-06-14T10:26:13;8.13;;;2.53;;
21416;SDS011;10869;52.238;10.716;2023-06-14T10:28:51;9.97;;;2.53;;
21416;SDS011;10869;52.238;10.716;2023-06-14T10:34:29;8.77;;;2.60;;
21416;SDS011;10869;52.238;10.716;2023-06-14T10:39:28;8.10;;;2.40;;
21416;SDS011;10869;52.238;10.716;2023-06-14T10:41:55;5.53;;;2.43;;
21416;SDS011;10869;52.238;10.716;2023-06-14T10:46:54;6.77;;;2.30;;
21416;SDS011;10869;52.238;10.716;2023-06-14T10:49:36;6.13;;;2.30;;
21416;SDS011;10869;52.238;10.716;2023-06-14T10:52:10;5.27;;;2.43;;
21416;SDS011;10869;52.238;10.716;2023-06-14T10:57:34;5.37;;;2.47;;
21416;SDS011;10869;52.238;10.716;2023-06-14T11:00:06;6.83;;;2.67;;
21416;SDS011;10869;52.238;10.716;2023-06-14T11:06:02;5.93;;;3.00;;
21416;SDS011;10869;52.238;10.716;2023-06-14T11:11:34;5.70;;;2.95;;
21416;SDS011;10869;52.238;10.716;2023-06-14T11:14:02;6.33;;;2.70;;
21416;SDS011;10869;52.238;10.716;2023-06-14T11:26:47;10.83;;;3.07;;
21416;SDS011;10869;52.238;10.716;2023-06-14T11:32:36;9.23;;;3.23;;
21416;SDS011;10869;52.238;10.716;2023-06-14T11:35:03;7.77;;;2.97;;
21416;SDS011;10869;52.238;10.716;2023-06-14T11:37:33;8.00;;;3.13;;
21416;SDS011;10869;52.238;10.716;2023-06-14T11:43:21;8.33;;;2.90;;
21416;SDS011;10869;52.238;10.716;2023-06-14T11:45:50;10.30;;;2.40;;
21416;SDS011;10869;52.238;10.716;2023-06-14T11:48:18;9.43;;;2.50;;
21416;SDS011;10869;52.238;10.716;2023-06-14T11:54:06;8.30;;;3.00;;
21416;SDS011;10869;52.238;10.716;2023-06-14T11:56:33;6.53;;;2.33;;
21416;SDS011;10869;52.238;10.716;2023-06-14T11:59:00;8.87;;;2.77;;
21416;SDS011;10869;52.238;10.716;2023-06-14T12:01:29;6.93;;;2.70;;
21416;SDS011;10869;52.238;10.716;2023-06-14T12:03:56;8.07;;;3.07;;
21416;SDS011;10869;52.238;10.716;2023-06-14T12:06:26;11.47;;;3.20;;
21416;SDS011;10869;52.238;10.716;2023-06-14T12:08:58;8.57;;;2.87;;
21416;SDS011;10869;52.238;10.716;2023-06-14T12:11:27;5.70;;;2.47;;
21416;SDS011;10869;52.238;10.716;2023-06-14T12:13:58;8.60;;;3.13;;
21416;SDS011;10869;52.238;10.716;2023-06-14T12:16:29;9.10;;;2.67;;
21416;SDS011;10869;52.238;10.716;2023-06-14T12:18:59;8.60;;;2.97;;
21416;SDS011;10869;52.238;10.716;2023-06-14T12:21:27;7.73;;;2.90;;
21416;SDS011;10869;52.238;10.716;2023-06-14T12:23:53;11.10;;;2.87;;
21416;SDS011;10869;52.238;10.716;2023-06-14T12:26:20;9.10;;;2.90;;
21416;SDS011;10869;52.238;10.716;2023-06-14T12:28:46;12.20;;;3.20;;
21416;SDS011;10869;52.238;10.716;2023-06-14T12:31:13;11.80;;;3.30;;
21416;SDS011;10869;52.238;10.716;2023-06-14T12:33:40;15.30;;;3.30;;
21416;SDS011;10869;52.238;10.716;2023-06-14T12:36:09;9.93;;;2.80;;
21416;SDS011;10869;52.238;10.716;2023-06-14T12:38:35;6.77;;;2.80;;
21416;SDS011;10869;52.238;10.716;2023-06-14T12:41:02;11.80;;;2.83;;
21416;SDS011;10869;52.238;10.716;2023-06-14T12:43:28;6.87;;;2.70;;
21416;SDS011;10869;52.238;10.716;2023-06-14T12:49:15;11.83;;;2.60;;
21416;SDS011;10869;52.238;10.716;2023-06-14T12:51:41;7.00;;;3.23;;
21416;SDS011;10869;52.238;10.716;2023-06-14T12:54:07;6.87;;;2.20;;
21416;SDS011;10869;52.238;10.716;2023-06-14T12:56:34;5.80;;;2.73;;
21416;SDS011;10869;52.238;10.716;2023-06-14T12:59:00;9.33;;;3.10;;
21416;SDS011;10869;52.238;10.716;2023-06-14T13:01:26;7.67;;;3.00;;
21416;SDS011;10869;52.238;10.716;2023-06-14T13:07:16;8.83;;;2.97;;
21416;SDS011;10869;52.238;10.716;2023-06-14T13:09:42;6.17;;;2.63;;
21416;SDS011;10869;52.238;10.716;2023-06-14T13:12:09;8.33;;;2.87;;
21416;SDS011;10869;52.238;10.716;2023-06-14T13:14:41;7.60;;;2.87;;
21416;SDS011;10869;52.238;10.716;2023-06-14T13:20:35;8.37;;;3.03;;
21416;SDS011;10869;52.238;10.716;2023-06-14T13:23:01;8.07;;;2.87;;
21416;SDS011;10869;52.238;10.716;2023-06-14T13:25:29;14.30;;;2.87;;
21416;SDS011;10869;52.238;10.716;2023-06-14T13:27:54;7.47;;;3.13;;
21416;SDS011;10869;52.238;10.716;2023-06-14T13:30:20;8.43;;;2.67;;
21416;SDS011;10869;52.238;10.716;2023-06-14T13:32:47;5.63;;;2.73;;
21416;SDS011;10869;52.238;10.716;2023-06-14T13:35:12;7.10;;;2.90;;
21416;SDS011;10869;52.238;10.716;2023-06-14T13:37:38;6.00;;;2.80;;
21416;SDS011;10869;52.238;10.716;2023-06-14T13:40:04;10.27;;;3.43;;
21416;SDS011;10869;52.238;10.716;2023-06-14T13:42:31;6.87;;;2.60;;
21416;SDS011;10869;52.238;10.716;2023-06-14T13:44:58;8.03;;;3.80;;
21416;SDS011;10869;52.238;10.716;2023-06-14T13:47:24;6.90;;;2.90;;
21416;SDS011;10869;52.238;10.716;2023-06-14T13:49:49;10.10;;;2.77;;
21416;SDS011;10869;52.238;10.716;2023-06-14T13:52:15;9.13;;;3.60;;
21416;SDS011;10869;52.238;10.716;2023-06-14T13:54:41;7.87;;;2.83;;
21416;SDS011;10869;52.238;10.716;2023-06-14T13:57:07;10.40;;;3.60;;
21416;SDS011;10869;52.238;10.716;2023-06-14T13:59:34;4.67;;;2.63;;
21416;SDS011;10869;52.238;10.716;2023-06-14T14:02:00;5.80;;;2.67;;
21416;SDS011;10869;52.238;10.716;2023-06-14T14:04:25;8.60;;;2.93;;
21416;SDS011;10869;52.238;10.716;2023-06-14T14:10:20;8.77;;;3.57;;
21416;SDS011;10869;52.238;10.716;2023-06-14T14:12:46;10.70;;;3.10;;
21416;SDS011;10869;52.238;10.716;2023-06-14T14:15:12;13.83;;;3.20;;
21416;SDS011;10869;52.238;10.716;2023-06-14T14:17:39;8.50;;;3.30;;
21416;SDS011;10869;52.238;10.716;2023-06-14T14:20:06;10.27;;;3.70;;
21416;SDS011;10869;52.238;10.716;2023-06-14T14:22:32;12.30;;;3.83;;
21416;SDS011;10869;52.238;10.716;2023-06-14T14:25:00;6.57;;;3.23;;
21416;SDS011;10869;52.238;10.716;2023-06-14T14:27:26;7.10;;;2.60;;
21416;SDS011;10869;52.238;10.716;2023-06-14T14:29:52;6.77;;;3.00;;
21416;SDS011;10869;52.238;10.716;2023-06-14T14:32:17;8.80;;;4.57;;
21416;SDS011;10869;52.238;10.716;2023-06-14T14:34:43;9.43;;;3.80;;
21416;SDS011;10869;52.238;10.716;2023-06-14T14:37:09;7.40;;;3.20;;
21416;SDS011;10869;52.238;10.716;2023-06-14T14:39:36;8.40;;;3.10;;
21416;SDS011;10869;52.238;10.716;2023-06-14T14:42:02;10.90;;;3.23;;
21416;SDS011;10869;52.238;10.716;2023-06-14T14:44:28;10.53;;;3.00;;
21416;SDS011;10869;52.238;10.716;2023-06-14T14:46:54;15.70;;;3.70;;
21416;SDS011;10869;52.238;10.716;2023-06-14T14:49:20;11.43;;;3.13;;
21416;SDS011;10869;52.238;10.716;2023-06-14T14:51:46;10.80;;;3.43;;
21416;SDS011;10869;52.238;10.716;2023-06-14T14:54:14;8.83;;;3.03;;
21416;SDS011;10869;52.238;10.716;2023-06-14T14:56:40;7.33;;;2.97;;
21416;SDS011;10869;52.238;10.716;2023-06-14T15:02:27;8.63;;;3.23;;
21416;SDS011;10869;52.238;10.716;2023-06-14T15:08:15;11.97;;;4.07;;
21416;SDS011;10869;52.238;10.716;2023-06-14T15:14:06;8.10;;;3.23;;
21416;SDS011;10869;52.238;10.716;2023-06-14T15:16:31;7.80;;;3.50;;
21416;SDS011;10869;52.238;10.716;2023-06-14T15:18:57;11.10;;;3.03;;
21416;SDS011;10869;52.238;10.716;2023-06-14T15:21:23;6.60;;;3.63;;
21416;SDS011;10869;52.238;10.716;2023-06-14T15:27:11;10.97;;;3.10;;
21416;SDS011;10869;52.238;10.716;2023-06-14T15:29:46;13.83;;;3.70;;
21416;SDS011;10869;52.238;10.716;2023-06-14T15:32:12;8.23;;;3.60;;
21416;SDS011;10869;52.238;10.716;2023-06-14T15:34:38;13.00;;;3.30;;
21416;SDS011;10869;52.238;10.716;2023-06-14T15:40:26;9.77;;;3.03;;
21416;SDS011;10869;52.238;10.716;2023-06-14T15:42:53;7.07;;;3.13;;
21416;SDS011;10869;52.238;10.716;2023-06-14T15:45:18;7.50;;;3.13;;
21416;SDS011;10869;52.238;10.716;2023-06-14T15:47:44;10.47;;;2.90;;
21416;SDS011;10869;52.238;10.716;2023-06-14T15:50:10;8.93;;;3.50;;
21416;SDS011;10869;52.238;10.716;2023-06-14T15:52:36;9.63;;;3.20;;
21416;SDS011;10869;52.238;10.716;2023-06-14T15:55:02;11.93;;;3.27;;
21416;SDS011;10869;52.238;10.716;2023-06-14T15:57:31;10.13;;;3.23;;
21416;SDS011;10869;52.238;10.716;2023-06-14T16:02:33;8.37;;;3.30;;
21416;SDS011;10869;52.238;10.716;2023-06-14T16:04:58;8.93;;;3.37;;
21416;SDS011;10869;52.238;10.716;2023-06-14T16:07:24;7.87;;;2.77;;
21416;SDS011;10869;52.238;10.716;2023-06-14T16:09:50;9.93;;;3.40;;
21416;SDS011;10869;52.238;10.716;2023-06-14T16:12:17;14.67;;;4.10;;
21416;SDS011;10869;52.238;10.716;2023-06-14T16:14:46;9.83;;;3.40;;
21416;SDS011;10869;52.238;10.716;2023-06-14T16:17:16;9.10;;;3.10;;
21416;SDS011;10869;52.238;10.716;2023-06-14T16:19:47;7.93;;;3.20;;
21416;SDS011;10869;52.238;10.716;2023-06-14T16:31:01;8.77;;;3.17;;
21416;SDS011;10869;52.238;10.716;2023-06-14T16:33:27;13.13;;;3.70;;
21416;SDS011;10869;52.238;10.716;2023-06-14T16:35:53;9.53;;;3.03;;
21416;SDS011;10869;52.238;10.716;2023-06-14T16:38:19;5.77;;;2.57;;
21416;SDS011;10869;52.238;10.716;2023-06-14T16:40:46;11.43;;;3.50;;
21416;SDS011;10869;52.238;10.716;2023-06-14T16:46:35;8.27;;;3.10;;
21416;SDS011;10869;52.238;10.716;2023-06-14T16:49:01;17.47;;;3.80;;
21416;SDS011;10869;52.238;10.716;2023-06-14T16:51:29;8.30;;;3.30;;
21416;SDS011;10869;52.238;10.716;2023-06-14T16:57:17;10.33;;;3.23;;
21416;SDS011;10869;52.238;10.716;2023-06-14T17:12:39;9.27;;;3.43;;
21416;SDS011;10869;52.238;10.716;2023-06-14T17:15:09;9.73;;;3.40;;
21416;SDS011;10869;52.238;10.716;2023-06-14T17:17:35;14.50;;;3.23;;
21416;SDS011;10869;52.238;10.716;2023-06-14T17:22:37;7.90;;;3.60;;
21416;SDS011;10869;52.238;10.716;2023-06-14T17:33:45;8.37;;;3.17;;
21416;SDS011;10869;52.238;10.716;2023-06-14T17:39:33;8.17;;;3.20;;
21416;SDS011;10869;52.238;10.716;2023-06-14T17:42:00;11.10;;;3.47;;
21416;SDS011;10869;52.238;10.716;2023-06-14T17:44:25;8.33;;;3.10;;
21416;SDS011;10869;52.238;10.716;2023-06-14T17:46:51;8.30;;;2.63;;
21416;SDS011;10869;52.238;10.716;2023-06-14T17:49:17;7.13;;;3.27;;
21416;SDS011;10869;52.238;10.716;2023-06-14T17:51:48;13.57;;;4.23;;
21416;SDS011;10869;52.238;10.716;2023-06-14T17:54:14;10.80;;;3.30;;
21416;SDS011;10869;52.238;10.716;2023-06-14T17:56:42;6.93;;;2.83;;
21416;SDS011;10869;52.238;10.716;2023-06-14T17:59:08;10.33;;;3.20;;
21416;SDS011;10869;52.238;10.716;2023-06-14T18:01:35;10.03;;;3.40;;
21416;SDS011;10869;52.238;10.716;2023-06-14T18:04:01;9.40;;;3.30;;
21416;SDS011;10869;52.238;10.716;2023-06-14T18:06:27;17.90;;;3.87;;
21416;SDS011;10869;52.238;10.716;2023-06-14T18:09:02;14.23;;;3.57;;
21416;SDS011;10869;52.238;10.716;2023-06-14T18:16:38;9.50;;;3.83;;
21416;SDS011;10869;52.238;10.716;2023-06-14T18:19:06;9.30;;;3.00;;
21416;SDS011;10869;52.238;10.716;2023-06-14T18:21:35;10.63;;;3.20;;
21416;SDS011;10869;52.238;10.716;2023-06-14T18:24:01;7.17;;;3.27;;
21416;SDS011;10869;52.238;10.716;2023-06-14T18:29:50;8.83;;;3.43;;
21416;SDS011;10869;52.238;10.716;2023-06-14T18:35:39;8.77;;;3.83;;
21416;SDS011;10869;52.238;10.716;2023-06-14T18:38:08;7.80;;;3.50;;
21416;SDS011;10869;52.238;10.716;2023-06-14T18:40:38;8.53;;;3.50;;
21416;SDS011;10869;52.238;10.716;2023-06-14T19:17:30;7.50;;;3.70;;
21416;SDS011;10869;52.238;10.716;2023-06-14T19:23:21;6.70;;;3.17;;
21416;SDS011;10869;52.238;10.716;2023-06-14T19:29:11;10.67;;;3.67;;
21416;SDS011;10869;52.238;10.716;2023-06-14T19:31:37;14.97;;;4.23;;
21416;SDS011;10869;52.238;10.716;2023-06-14T19:34:02;9.90;;;3.20;;
21416;SDS011;10869;52.238;10.716;2023-06-14T19:36:32;11.73;;;3.77;;
21416;SDS011;10869;52.238;10.716;2023-06-14T19:57:41;8.97;;;3.33;;
21416;SDS011;10869;52.238;10.716;2023-06-14T20:00:07;8.17;;;3.43;;
21416;SDS011;10869;52.238;10.716;2023-06-14T20:02:33;6.90;;;3.77;;
21416;SDS011;10869;52.238;10.716;2023-06-14T20:08:22;7.97;;;3.20;;
21416;SDS011;10869;52.238;10.716;2023-06-14T20:14:11;9.40;;;3.60;;
21416;SDS011;10869;52.238;10.716;2023-06-14T20:16:37;7.30;;;3.47;;
21416;SDS011;10869;52.238;10.716;2023-06-14T20:19:03;6.27;;;3.30;;
21416;SDS011;10869;52.238;10.716;2023-06-14T20:21:28;12.33;;;3.80;;
21416;SDS011;10869;52.238;10.716;2023-06-14T20:23:54;9.40;;;3.40;;
21416;SDS011;10869;52.238;10.716;2023-06-14T20:26:20;9.17;;;3.53;;
21416;SDS011;10869;52.238;10.716;2023-06-14T20:28:46;11.03;;;3.13;;
21416;SDS011;10869;52.238;10.716;2023-06-14T20:31:13;8.23;;;3.20;;
21416;SDS011;10869;52.238;10.716;2023-06-14T20:33:43;7.20;;;3.53;;
21416;SDS011;10869;52.238;10.716;2023-06-14T20:36:10;8.50;;;3.27;;
21416;SDS011;10869;52.238;10.716;2023-06-14T20:38:36;9.37;;;3.37;;
21416;SDS011;10869;52.238;10.716;2023-06-14T20:43:37;8.17;;;3.27;;
21416;SDS011;10869;52.238;10.716;2023-06-14T20:46:03;10.20;;;3.60;;
21416;SDS011;10869;52.238;10.716;2023-06-14T20:48:32;10.90;;;3.00;;
21416;SDS011;10869;52.238;10.716;2023-06-14T20:50:59;10.77;;;3.37;;
21416;SDS011;10869;52.238;10.716;2023-06-14T20:53:25;8.50;;;2.90;;
21416;SDS011;10869;52.238;10.716;2023-06-14T20:55:51;8.90;;;3.50;;
21416;SDS011;10869;52.238;10.716;2023-06-14T20:58:17;9.53;;;3.77;;
21416;SDS011;10869;52.238;10.716;2023-06-14T21:03:18;7.50;;;3.30;;
21416;SDS011;10869;52.238;10.716;2023-06-14T21:05:44;8.80;;;3.23;;
21416;SDS011;10869;52.238;10.716;2023-06-14T21:08:11;9.30;;;3.03;;
21416;SDS011;10869;52.238;10.716;2023-06-14T21:10:36;13.40;;;3.20;;
21416;SDS011;10869;52.238;10.716;2023-06-14T21:13:02;7.43;;;3.10;;
21416;SDS011;10869;52.238;10.716;2023-06-14T21:15:28;5.83;;;2.90;;
21416;SDS011;10869;52.238;10.716;2023-06-14T21:17:54;10.53;;;3.50;;
21416;SDS011;10869;52.238;10.716;2023-06-14T21:20:21;7.00;;;3.40;;
21416;SDS011;10869;52.238;10.716;2023-06-14T21:22:47;6.83;;;3.40;;
21416;SDS011;10869;52.238;10.716;2023-06-14T21:25:14;9.47;;;3.93;;
21416;SDS011;10869;52.238;10.716;2023-06-14T21:27:40;6.93;;;3.50;;